Aeroporto :
LOGIN :

Iscrizione | Disclaimer

   EN    FR    IT 

 










Sommario :    VFR   VFR Marginale   IFR   IFR Intensivo   IFR Molto Intensivo
Visibilità : 
Base nubi : 
>= 8 km
>= 3000ft
5 / 8 km
1000 / 3000 ft
1500m / 5 km
500 / 1000 ft
800 / 1500m
200 / 500 ft
< 800m
< 200 ft
Simboli :   Temporali  Nebbia  Neve Forte  Precipitazioni Forti  Vento > 20 kt
SIGMETs :   Varie  Temporali  Ghiacco  Turbolenza  Onda orograficha  Ceneri Vulcaniche







- Altitudine del aeroporto : 40 ft
- Codice IATA : RMI


LIPR - Federico Fellini Int. Rimini

ULTIMO METAR :
  • 181650Z 10002KT 4000 BR NSC 09/05 Q1022

METARs OBSOLETI :
  • 181620Z VRB02KT 6000 NSC 10/05 Q1022
  • 181550Z 08004KT 050V110 8000 NSC 11/05 Q1022
  • 181520Z 08005KT 8000 NSC 11/05 Q1022
  • 181450Z 08005KT 040V100 8000 NSC 12/05 Q1023
  • 181420Z 08005KT 8000 NSC 12/03 Q1023

TAF TAF LIPR
Valido dal 18 a 15 ore il 19 a 00 ore UTC


181400Z 1815/1824 VRB04KT 7000 NSC
BECMG 1818/1820 1500 BR
BECMG 1821/1823 0400 FG
Nessun NOTAM noto per questo aeroporto.



MetMap, La meteo Aeronautica in un colpo d'occhio ! - Copyright ORBIFLY Dicembre 2007 - Disclaimer

ORBIFLY MET'MAP TEAM :

Programmazione e sviluppo : Alexandra Zaïnal
Concezione e sviluppo : Baudouin d'Aumeries
Co-Programmazione e sviluppo : Marc-Olivier Méhu
Supporto tecnico e logistico : Manuel Goepfert
Aiuto per la traduzione : Arnaldo La Scala

Contatto : metmap@orbifly.com




FONTI E CREDITI :

   NOAA